Terminal Aerodrome Forecast
Issued by NWS Jackson, MS

Home | Current Version | Previous Version | Text Only | Print | Product List | Glossary On
Versions: 1 2 3 4 5 6 7 8 9 10 11 12
000
FTUS44 KJAN 011700
TAFGLH
TAF
KGLH 011733Z 0118/0218 20016G25KT P6SM VCSH OVC015
     FM012000 24016G25KT 5SM SHRA BR SCT006 OVC025
     FM020000 30017G24KT P6SM OVC025
     FM020300 30015G22KT P6SM BKN100=

USA.gov is the U.S. government's official web portal to all federal, state and local government web resources and services.